Contact Us:
Email: info@sawbill.com
Phone: (218)663-7150
Fax: (218)663-7980
Mail: 4620 Sawbill Trail
Box 2129
Tofte, MN 55615


Powered by
Movable Type 3.15
 
Sawbill Weather History Archives: June 2011
Current Sawbill Weather History | « May 2011 | July 2011 »


Date

High
Temperature

Low
Temperature

Barometric
Pressure

Relative
Humidity 7AM

9 AM
Temperature

Moisture

Snow

6/30/11 73 56 29.68 98% 68 0
6/29/11 71 45 29.80 89% 56 0
6/28/11 64 46 29.73 89% 54 0
6/27/11 63 55 29.85 96% 56 .8"
6/26/11 71 53 29.68 90% 59 .03"
6/25/11 73 53 29.83 81% 53 0
6/24/11 71 53 29.80 80% 55 0
6/23/11 66 51 29.71 81% 55 .09"
6/22/11 54 50 29.92 98% 51 .95"
6/21/11 66 52 29.62 95% 52 .32"
6/20/11 63 51 29.80 81% 57 Trace
6/19/11 55 51 29.77 95% 51 .3"
6/18/11 61 49 29.80 90% 51 .43"
6/17/11 74 50 29.85 52% 59 0
6/16/11 61 48 29.83 85% 50 Trace
6/15/11 70 56 29.65 85% 56 Trace
6/14/11 74 49 29.74 62% 56 0
6/13/11 72 47 30.00 64% 57 0
6/12/11 72 44 30.03 71% 47 0
6/11/11 63 39 29.97 84% 46 0
6/10/11 59 44 29.91 82% 46 .03"
6/9/11 59 41 30.03 70% 44 0
6/8/11 65 53 30.03 84% 44 Trace
6/7/11 70 53 29.47 91% 53 .45"
6/6/11 78 53 29.71 77% 58 .03"
6/5/11 68 47 29.80 90% 53 .07"
6/4/11 70 47 30.06 70% 47 0
6/3/11 73 52 29.83 80% 55 .02"
6/2/11 61 35 29.77 71% 52 .08"
6/1/11 55 34 30.09 76% 35 0
 


Home I Trip Planning I Rentals and Outfitting I Reservations I Campgrounds I Sawbill Store I Sawbill News I Contact

© 1997 - 2017, Sawbill Canoe Outfitters, Inc. I Privacy Policy